createdAt,value
2019-03-27T00:02:19.472Z,0.18
2019-03-27T00:04:52.144Z,0.14
2019-03-27T00:07:24.728Z,0.09
2019-03-27T00:09:57.408Z,-0.03
2019-03-27T00:12:29.977Z,-0.04
2019-03-27T00:15:12.831Z,-0.06
2019-03-27T00:17:36.780Z,-0.10
2019-03-27T00:20:12.622Z,-0.12
2019-03-27T00:22:46.846Z,-0.10
2019-03-27T00:25:19.430Z,-0.19
2019-03-27T00:27:51.730Z,-0.18
2019-03-27T00:30:24.269Z,-0.24
2019-03-27T00:32:56.468Z,-0.26
2019-03-27T00:35:29.013Z,-0.28
2019-03-27T00:38:02.409Z,-0.34
2019-03-27T00:40:34.985Z,-0.40
2019-03-27T00:43:07.973Z,-0.44
2019-03-27T00:45:40.594Z,-0.44
2019-03-27T00:48:13.628Z,-0.55
2019-03-27T00:50:46.212Z,-0.55
2019-03-27T00:53:18.781Z,-0.56
2019-03-27T00:55:51.359Z,-0.58
2019-03-27T00:58:23.554Z,-0.56
2019-03-27T01:01:06.243Z,-0.56
2019-03-27T01:03:38.932Z,-0.61
2019-03-27T01:06:13.238Z,-0.66
2019-03-27T01:08:45.815Z,-0.66
2019-03-27T01:11:18.390Z,-0.70
2019-03-27T01:13:50.980Z,-0.75
2019-03-27T01:16:23.551Z,-0.75
2019-03-27T01:18:56.133Z,-0.77
2019-03-27T01:21:28.698Z,-0.75
2019-03-27T01:24:01.284Z,-0.82
2019-03-27T01:26:33.858Z,-0.83
2019-03-27T01:29:06.425Z,-0.82
2019-03-27T01:31:40.144Z,-0.84
2019-03-27T01:34:12.714Z,-0.87
2019-03-27T01:36:45.372Z,-0.83
2019-03-27T01:39:17.957Z,-0.78
2019-03-27T01:41:50.548Z,-0.76
2019-03-27T01:44:23.427Z,-0.76
2019-03-27T01:46:56.005Z,-0.76
2019-03-27T01:49:28.568Z,-0.75
2019-03-27T01:52:00.699Z,-0.78
2019-03-27T01:54:32.903Z,-0.78
2019-03-27T01:57:05.392Z,-0.75
2019-03-27T01:59:37.975Z,-0.74
2019-03-27T02:02:10.542Z,-0.78
2019-03-27T02:04:43.133Z,-0.72
2019-03-27T02:07:15.806Z,-0.71
2019-03-27T02:09:48.380Z,-0.74
2019-03-27T02:12:20.942Z,-0.76
2019-03-27T02:14:53.535Z,-0.77
2019-03-27T02:17:26.114Z,-0.76
2019-03-27T02:19:58.311Z,-0.72
2019-03-27T02:22:30.847Z,-0.72
2019-03-27T02:25:03.050Z,-0.79
2019-03-27T02:27:35.604Z,-0.81
2019-03-27T02:30:10.270Z,-0.83
2019-03-27T02:32:42.421Z,-0.83
2019-03-27T02:35:15.069Z,-0.92
2019-03-27T02:37:47.651Z,-0.83
2019-03-27T02:40:19.858Z,-0.78
2019-03-27T02:42:52.439Z,-0.83
2019-03-27T02:45:25.067Z,-0.85
2019-03-27T02:47:57.651Z,-0.90
2019-03-27T02:50:30.535Z,-0.96
2019-03-27T02:53:04.638Z,-0.98
2019-03-27T02:55:37.215Z,-0.96
2019-03-27T02:58:09.857Z,-0.95
2019-03-27T03:00:42.467Z,-0.93
2019-03-27T03:03:15.045Z,-0.90
2019-03-27T03:06:00.242Z,-0.87
2019-03-27T03:08:36.805Z,-0.88
2019-03-27T03:11:09.013Z,-0.96
2019-03-27T03:13:41.543Z,-0.98
2019-03-27T03:16:15.336Z,-0.92
2019-03-27T03:18:47.925Z,-0.92
2019-03-27T03:21:20.567Z,-0.88
2019-03-27T03:23:52.688Z,-0.84
2019-03-27T03:26:25.343Z,-0.88
2019-03-27T03:28:57.914Z,-0.95
2019-03-27T03:31:30.634Z,-1.02
2019-03-27T03:34:03.360Z,-1.09
2019-03-27T03:36:35.959Z,-1.13
2019-03-27T03:39:08.210Z,-1.10
2019-03-27T03:41:40.802Z,-1.02
2019-03-27T03:44:13.385Z,-0.97
2019-03-27T03:46:58.945Z,-0.92
2019-03-27T03:49:20.170Z,-0.88
2019-03-27T03:51:55.200Z,-0.85
2019-03-27T03:54:27.836Z,-0.79
2019-03-27T03:57:01.276Z,-0.75
2019-03-27T03:59:34.057Z,-0.75
2019-03-27T04:02:06.844Z,-0.77
2019-03-27T04:04:39.416Z,-0.78
2019-03-27T04:07:11.998Z,-0.77
2019-03-27T04:09:44.568Z,-0.76
2019-03-27T04:12:17.157Z,-0.69
2019-03-27T04:14:49.761Z,-0.69
2019-03-27T04:17:22.311Z,-0.65
2019-03-27T04:19:54.874Z,-0.64
2019-03-27T04:22:27.564Z,-0.66
2019-03-27T04:25:00.505Z,-0.63
2019-03-27T04:27:33.221Z,-0.64
2019-03-27T04:30:07.843Z,-0.65
2019-03-27T04:32:40.428Z,-0.65
2019-03-27T04:35:13.517Z,-0.67
2019-03-27T04:37:46.085Z,-0.67
2019-03-27T04:40:18.673Z,-0.72
2019-03-27T04:42:51.351Z,-0.76
2019-03-27T04:45:23.922Z,-0.86
2019-03-27T04:47:57.007Z,-1.00
2019-03-27T04:50:29.585Z,-1.05
2019-03-27T04:53:03.703Z,-1.05
2019-03-27T04:55:36.285Z,-1.03
2019-03-27T04:58:08.850Z,-0.92
2019-03-27T05:00:58.129Z,-0.85
2019-03-27T05:04:04.487Z,-0.78
2019-03-27T05:06:43.618Z,-0.66
2019-03-27T05:09:16.217Z,-0.57
2019-03-27T05:11:48.773Z,-0.48
2019-03-27T05:14:21.352Z,-0.43
2019-03-27T05:16:53.933Z,-0.36
2019-03-27T05:19:26.512Z,-0.33
2019-03-27T05:22:00.524Z,-0.27
2019-03-27T05:24:33.499Z,-0.21
2019-03-27T05:27:06.067Z,-0.14
2019-03-27T05:29:38.661Z,-0.05
2019-03-27T05:32:11.235Z,0.04
2019-03-27T05:34:44.939Z,0.13
2019-03-27T05:37:17.518Z,0.26
2019-03-27T05:39:50.090Z,0.38
2019-03-27T05:42:22.661Z,0.50
2019-03-27T05:44:55.249Z,0.64
2019-03-27T05:47:27.823Z,0.75
2019-03-27T05:50:00.801Z,0.89
2019-03-27T05:52:33.380Z,1.01
2019-03-27T05:55:07.295Z,1.12
2019-03-27T05:57:39.863Z,1.33
2019-03-27T06:00:14.181Z,1.33
2019-03-27T06:02:46.320Z,1.45
2019-03-27T06:05:18.929Z,1.55
2019-03-27T06:07:52.427Z,1.59
2019-03-27T06:10:25.008Z,1.69
2019-03-27T06:12:57.154Z,1.76
2019-03-27T06:15:29.747Z,1.96
2019-03-27T06:18:12.533Z,2.04
2019-03-27T06:20:37.251Z,2.16
2019-03-27T06:23:09.835Z,2.19
2019-03-27T06:25:42.407Z,2.38
2019-03-27T06:28:14.998Z,2.52
2019-03-27T06:30:47.555Z,2.57
2019-03-27T06:33:20.034Z,2.80
2019-03-27T06:35:52.608Z,2.80
2019-03-27T06:38:25.194Z,2.96
2019-03-27T06:40:58.247Z,3.11
2019-03-27T06:43:30.959Z,3.26
2019-03-27T06:46:03.531Z,3.33
2019-03-27T06:48:36.127Z,3.43
2019-03-27T06:51:08.685Z,3.54
2019-03-27T06:53:41.155Z,3.70
2019-03-27T06:56:13.835Z,3.74
2019-03-27T06:58:54.335Z,3.83
2019-03-27T07:01:20.627Z,3.93
2019-03-27T07:03:53.215Z,3.99
2019-03-27T07:06:27.008Z,4.08
2019-03-27T07:08:59.593Z,4.33
2019-03-27T07:11:32.167Z,4.49
2019-03-27T07:14:04.640Z,4.84
2019-03-27T07:16:38.156Z,5.12
2019-03-27T07:19:10.752Z,5.00
2019-03-27T07:21:44.316Z,4.97
2019-03-27T07:24:16.894Z,4.76
2019-03-27T07:26:49.433Z,4.96
2019-03-27T07:29:21.945Z,5.13
2019-03-27T07:31:54.531Z,5.35
2019-03-27T07:34:27.206Z,5.49
2019-03-27T07:36:59.779Z,5.56
2019-03-27T07:39:32.532Z,5.76
2019-03-27T07:42:05.143Z,5.73
2019-03-27T07:44:37.724Z,5.81
2019-03-27T07:47:09.938Z,5.84
2019-03-27T07:49:42.463Z,6.00
2019-03-27T07:52:15.544Z,6.18
2019-03-27T07:54:48.429Z,6.19
2019-03-27T07:57:21.005Z,6.30
2019-03-27T07:59:53.480Z,6.42
2019-03-27T08:02:26.056Z,6.46
2019-03-27T08:04:58.177Z,6.67
2019-03-27T08:07:30.366Z,7.13
2019-03-27T08:10:02.884Z,7.48
2019-03-27T08:12:35.859Z,7.55
2019-03-27T08:15:10.171Z,8.04
2019-03-27T08:17:42.853Z,7.73
2019-03-27T08:20:15.846Z,7.55
2019-03-27T08:22:48.406Z,7.87
2019-03-27T08:25:20.999Z,7.91
2019-03-27T08:27:53.569Z,8.16
2019-03-27T08:30:26.448Z,8.07
2019-03-27T08:32:59.030Z,8.01
2019-03-27T08:35:31.493Z,7.94
2019-03-27T08:38:03.683Z,8.19
2019-03-27T08:40:36.249Z,8.45
2019-03-27T08:43:20.578Z,8.28
2019-03-27T08:45:46.107Z,8.62
2019-03-27T08:48:18.687Z,8.70
2019-03-27T08:50:52.292Z,8.93
2019-03-27T08:53:25.493Z,9.12
2019-03-27T08:55:58.053Z,9.11
2019-03-27T08:58:30.247Z,9.38
2019-03-27T09:01:02.801Z,9.55
2019-03-27T09:03:35.373Z,9.89
2019-03-27T09:06:07.505Z,10.28
2019-03-27T09:08:40.315Z,9.99
2019-03-27T09:11:14.024Z,9.47
2019-03-27T09:13:46.604Z,9.61
2019-03-27T09:16:19.076Z,9.75
2019-03-27T09:18:51.658Z,9.88
2019-03-27T09:21:24.232Z,10.07
2019-03-27T09:23:56.855Z,10.10
2019-03-27T09:26:28.965Z,9.53
2019-03-27T09:29:01.561Z,9.60
2019-03-27T09:31:44.022Z,9.81
2019-03-27T09:34:08.653Z,10.19
2019-03-27T09:36:40.774Z,10.16
2019-03-27T09:39:13.470Z,10.20
2019-03-27T09:41:45.973Z,10.57
2019-03-27T09:44:18.545Z,10.49
2019-03-27T09:46:51.020Z,10.56
2019-03-27T09:49:23.598Z,10.60
2019-03-27T09:51:56.186Z,10.89
2019-03-27T09:54:29.157Z,11.06
2019-03-27T09:57:01.645Z,10.78
2019-03-27T09:59:34.215Z,10.94
2019-03-27T10:02:06.788Z,10.96
2019-03-27T10:04:40.184Z,10.84
2019-03-27T10:07:12.882Z,11.33
2019-03-27T10:09:45.545Z,11.51
2019-03-27T10:12:18.129Z,11.37
2019-03-27T10:14:50.698Z,11.47
2019-03-27T10:17:23.922Z,11.04
2019-03-27T10:20:03.256Z,11.09
2019-03-27T10:22:30.787Z,11.11
2019-03-27T10:25:03.364Z,11.02
2019-03-27T10:27:35.945Z,11.51
2019-03-27T10:30:09.699Z,11.84
2019-03-27T10:32:42.222Z,11.97
2019-03-27T10:35:15.206Z,11.47
2019-03-27T10:37:47.796Z,12.10
2019-03-27T10:40:20.354Z,12.22
2019-03-27T10:42:52.992Z,12.01
2019-03-27T10:45:25.712Z,12.54
2019-03-27T10:47:57.901Z,13.00
2019-03-27T10:50:30.662Z,13.43
2019-03-27T10:53:03.249Z,13.48
2019-03-27T10:55:37.554Z,12.03
2019-03-27T10:58:10.154Z,11.34
2019-03-27T11:00:42.842Z,10.91
2019-03-27T11:03:15.493Z,10.58
2019-03-27T11:05:48.078Z,10.63
2019-03-27T11:08:20.645Z,10.53
2019-03-27T11:10:52.836Z,10.90
2019-03-27T11:13:25.383Z,10.72
2019-03-27T11:15:58.270Z,10.79
2019-03-27T11:18:30.848Z,11.29
2019-03-27T11:21:03.493Z,11.45
2019-03-27T11:23:36.001Z,11.11
2019-03-27T11:26:08.591Z,11.03
2019-03-27T11:28:41.165Z,11.40
2019-03-27T11:31:13.739Z,11.95
2019-03-27T11:33:46.306Z,11.41
2019-03-27T11:36:19.915Z,11.58
2019-03-27T11:38:52.498Z,11.44
2019-03-27T11:41:25.076Z,11.19
2019-03-27T11:43:57.650Z,12.41
2019-03-27T11:46:32.280Z,12.06
2019-03-27T11:49:04.328Z,11.51
2019-03-27T11:51:36.912Z,11.04
2019-03-27T11:54:09.379Z,11.08
2019-03-27T11:56:42.678Z,11.75
2019-03-27T11:59:15.258Z,11.65
2019-03-27T12:01:47.837Z,11.16
2019-03-27T12:04:20.403Z,11.03
2019-03-27T12:06:52.985Z,10.79
2019-03-27T12:09:25.565Z,10.69
2019-03-27T12:11:58.243Z,10.99
2019-03-27T12:14:30.813Z,10.76
2019-03-27T12:17:03.389Z,10.61
2019-03-27T12:19:37.866Z,10.67
2019-03-27T12:22:09.884Z,10.48
2019-03-27T12:24:42.565Z,10.15
2019-03-27T12:27:15.186Z,10.12
2019-03-27T12:29:47.702Z,9.94
2019-03-27T12:32:20.135Z,9.90
2019-03-27T12:34:52.767Z,9.90
2019-03-27T12:37:25.343Z,9.87
2019-03-27T12:39:57.923Z,9.92
2019-03-27T12:42:30.122Z,10.01
2019-03-27T12:45:04.807Z,10.01
2019-03-27T12:47:37.393Z,9.98
2019-03-27T12:50:10.982Z,9.81
2019-03-27T12:52:43.569Z,9.76
2019-03-27T12:55:16.656Z,9.75
2019-03-27T12:57:50.039Z,9.65
2019-03-27T13:00:23.242Z,9.53
2019-03-27T13:02:55.807Z,9.50
2019-03-27T13:05:28.388Z,9.61
2019-03-27T13:08:00.974Z,9.65
2019-03-27T13:10:33.551Z,9.77
2019-03-27T13:13:09.087Z,9.80
2019-03-27T13:15:41.664Z,9.90
2019-03-27T13:18:14.247Z,9.84
2019-03-27T13:20:46.825Z,9.84
2019-03-27T13:23:19.403Z,9.80
2019-03-27T13:25:51.973Z,9.64
2019-03-27T13:28:24.555Z,9.47
2019-03-27T13:30:57.132Z,9.29
2019-03-27T13:33:29.706Z,9.22
2019-03-27T13:36:02.287Z,9.24
2019-03-27T13:38:34.951Z,9.29
2019-03-27T13:41:07.426Z,9.41
2019-03-27T13:43:40.014Z,9.45
2019-03-27T13:46:12.490Z,9.60
2019-03-27T13:48:45.552Z,9.83
2019-03-27T13:51:18.257Z,9.94
2019-03-27T13:53:50.832Z,9.88
2019-03-27T13:56:23.304Z,9.94
2019-03-27T13:58:56.600Z,9.89
2019-03-27T14:01:29.074Z,9.93
2019-03-27T14:04:01.663Z,10.03
2019-03-27T14:06:34.221Z,9.84
2019-03-27T14:09:09.464Z,9.86
2019-03-27T14:11:42.197Z,9.88
2019-03-27T14:14:14.834Z,9.94
2019-03-27T14:16:47.403Z,10.22
2019-03-27T14:19:19.976Z,10.34
2019-03-27T14:21:54.734Z,10.47
2019-03-27T14:24:26.671Z,10.87
2019-03-27T14:27:00.877Z,10.56
2019-03-27T14:29:33.463Z,10.71
2019-03-27T14:32:06.043Z,10.56
2019-03-27T14:34:38.607Z,10.46
2019-03-27T14:37:11.190Z,10.42
2019-03-27T14:39:43.774Z,10.27
2019-03-27T14:42:16.353Z,10.26
2019-03-27T14:44:50.165Z,10.16
2019-03-27T14:47:23.751Z,9.96
2019-03-27T14:49:56.322Z,9.71
2019-03-27T14:52:28.893Z,9.57
2019-03-27T14:55:03.123Z,9.54
2019-03-27T14:57:35.286Z,9.45
2019-03-27T15:00:12.061Z,9.42
2019-03-27T15:02:44.629Z,9.40
2019-03-27T15:05:17.223Z,9.33
2019-03-27T15:07:49.787Z,9.30
2019-03-27T15:10:23.394Z,9.30
2019-03-27T15:12:55.969Z,9.25
2019-03-27T15:15:28.546Z,9.25
2019-03-27T15:18:01.123Z,9.18
2019-03-27T15:20:33.695Z,9.19
2019-03-27T15:23:06.994Z,9.17
2019-03-27T15:25:39.558Z,9.15
2019-03-27T15:28:12.033Z,9.09
2019-03-27T15:30:44.614Z,9.10
2019-03-27T15:33:17.195Z,9.07
2019-03-27T15:35:49.774Z,9.05
2019-03-27T15:38:22.355Z,9.06
2019-03-27T15:40:54.933Z,9.16
2019-03-27T15:43:27.068Z,9.15
2019-03-27T15:45:59.674Z,9.16
2019-03-27T15:48:32.017Z,9.20
2019-03-27T15:51:04.620Z,9.25
2019-03-27T15:53:37.191Z,9.19
2019-03-27T15:56:09.772Z,9.18
2019-03-27T15:58:42.357Z,9.21
2019-03-27T16:01:16.566Z,9.18
2019-03-27T16:03:49.130Z,9.16
2019-03-27T16:06:21.710Z,9.09
2019-03-27T16:08:54.290Z,9.01
2019-03-27T16:11:26.925Z,9.00
2019-03-27T16:13:59.441Z,9.00
2019-03-27T16:16:32.235Z,8.99
2019-03-27T16:19:05.937Z,8.96
2019-03-27T16:21:38.502Z,8.92
2019-03-27T16:24:10.977Z,8.96
2019-03-27T16:26:43.514Z,9.01
2019-03-27T16:29:16.023Z,9.09
2019-03-27T16:31:48.616Z,9.11
2019-03-27T16:34:21.189Z,9.09
2019-03-27T16:36:54.274Z,9.12
2019-03-27T16:39:26.958Z,9.14
2019-03-27T16:41:59.537Z,9.11
2019-03-27T16:44:32.102Z,8.93
2019-03-27T16:47:04.693Z,8.81
2019-03-27T16:49:36.920Z,8.74
2019-03-27T16:52:09.538Z,8.71
2019-03-27T16:54:42.413Z,8.70
2019-03-27T16:57:14.991Z,8.68
2019-03-27T16:59:47.573Z,8.68
2019-03-27T17:02:21.061Z,8.66
2019-03-27T17:04:53.642Z,8.68
2019-03-27T17:07:26.223Z,8.64
2019-03-27T17:09:58.892Z,8.63
2019-03-27T17:12:31.683Z,8.66
2019-03-27T17:15:04.982Z,8.61
2019-03-27T17:17:37.552Z,8.61
2019-03-27T17:20:13.909Z,8.59
2019-03-27T17:22:46.495Z,8.58
2019-03-27T17:25:19.046Z,8.57
2019-03-27T17:27:51.621Z,8.54
2019-03-27T17:30:24.199Z,8.55
2019-03-27T17:32:56.876Z,8.55
2019-03-27T17:35:29.352Z,8.52
2019-03-27T17:38:01.929Z,8.53
2019-03-27T17:40:34.411Z,8.53
2019-03-27T17:43:06.979Z,8.52
2019-03-27T17:45:40.686Z,8.51
2019-03-27T17:48:13.260Z,8.50
2019-03-27T17:50:45.839Z,8.48
2019-03-27T17:53:31.051Z,8.48
2019-03-27T17:55:52.527Z,8.46
2019-03-27T17:58:25.101Z,8.45
2019-03-27T18:00:58.600Z,8.42
2019-03-27T18:03:31.387Z,8.39
2019-03-27T18:06:03.972Z,8.34
2019-03-27T18:08:36.536Z,8.35
2019-03-27T18:11:09.111Z,8.30
2019-03-27T18:13:42.202Z,8.27
2019-03-27T18:16:17.161Z,8.27
2019-03-27T18:18:48.987Z,8.25
2019-03-27T18:21:21.414Z,8.23
2019-03-27T18:23:54.202Z,8.23
2019-03-27T18:26:26.723Z,8.23
2019-03-27T18:28:59.298Z,8.24
2019-03-27T18:31:31.878Z,8.22
2019-03-27T18:34:04.453Z,8.21
2019-03-27T18:36:37.030Z,8.24
2019-03-27T18:39:10.629Z,8.26
2019-03-27T18:41:43.221Z,8.25
2019-03-27T18:44:15.784Z,8.24
2019-03-27T18:46:48.258Z,8.27
2019-03-27T18:49:20.834Z,8.26
2019-03-27T18:51:53.411Z,8.27
2019-03-27T18:54:26.090Z,8.30
2019-03-27T18:56:58.670Z,8.30
2019-03-27T18:59:31.516Z,8.29
2019-03-27T19:02:04.235Z,8.29
2019-03-27T19:04:36.808Z,8.30
2019-03-27T19:07:09.281Z,8.32
2019-03-27T19:09:41.863Z,8.31
2019-03-27T19:12:14.433Z,8.30
2019-03-27T19:14:47.011Z,8.28
2019-03-27T19:17:19.136Z,8.24
2019-03-27T19:19:51.651Z,8.20
2019-03-27T19:22:24.228Z,8.17
2019-03-27T19:24:56.806Z,8.06
2019-03-27T19:27:29.438Z,7.97
2019-03-27T19:30:02.066Z,7.92
2019-03-27T19:32:34.739Z,7.92
2019-03-27T19:35:08.035Z,7.89
2019-03-27T19:37:40.168Z,7.90
2019-03-27T19:40:13.698Z,7.89
2019-03-27T19:42:46.577Z,7.84
2019-03-27T19:45:19.167Z,7.82
2019-03-27T19:47:51.291Z,7.80
2019-03-27T19:50:23.906Z,7.83
2019-03-27T19:52:56.582Z,7.79
2019-03-27T19:55:28.884Z,7.83
2019-03-27T19:58:01.530Z,7.80
2019-03-27T20:00:34.217Z,7.77
2019-03-27T20:03:06.741Z,7.75
2019-03-27T20:05:39.427Z,7.68
2019-03-27T20:08:11.939Z,7.63
2019-03-27T20:10:44.515Z,7.59
2019-03-27T20:13:17.088Z,7.53
2019-03-27T20:15:49.669Z,7.53
2019-03-27T20:18:23.781Z,7.51
2019-03-27T20:20:56.197Z,7.47
2019-03-27T20:23:28.733Z,7.45
2019-03-27T20:26:01.507Z,7.42
2019-03-27T20:28:33.981Z,7.42
2019-03-27T20:31:06.565Z,7.45
2019-03-27T20:33:39.196Z,7.50
2019-03-27T20:36:13.105Z,7.43
2019-03-27T20:38:46.137Z,7.45
2019-03-27T20:41:18.308Z,7.51
2019-03-27T20:43:50.886Z,7.47
2019-03-27T20:46:25.528Z,7.49
2019-03-27T20:48:57.571Z,7.48
2019-03-27T20:51:30.290Z,7.46
2019-03-27T20:54:02.829Z,7.54
2019-03-27T20:56:35.400Z,7.57
2019-03-27T20:59:07.881Z,7.55
2019-03-27T21:01:40.456Z,7.57
2019-03-27T21:04:13.067Z,7.57
2019-03-27T21:06:45.608Z,7.54
2019-03-27T21:09:18.329Z,7.58
2019-03-27T21:11:50.964Z,7.54
2019-03-27T21:14:23.100Z,7.52
2019-03-27T21:16:55.965Z,7.54
2019-03-27T21:19:28.387Z,7.52
2019-03-27T21:22:00.966Z,7.54
2019-03-27T21:24:33.535Z,7.57
2019-03-27T21:27:06.126Z,7.60
2019-03-27T21:29:38.591Z,7.60
2019-03-27T21:32:11.162Z,7.58
2019-03-27T21:34:52.737Z,7.63
2019-03-27T21:37:29.326Z,7.62
2019-03-27T21:40:02.281Z,7.60
2019-03-27T21:42:38.896Z,7.63
2019-03-27T21:45:13.876Z,7.64
2019-03-27T21:47:47.959Z,7.64
2019-03-27T21:50:22.629Z,7.66
2019-03-27T21:53:01.145Z,7.69
2019-03-27T21:55:42.594Z,7.66
2019-03-27T21:58:11.634Z,7.64
2019-03-27T22:00:45.951Z,7.65
2019-03-27T22:03:29.916Z,7.65
2019-03-27T22:06:20.422Z,7.67
2019-03-27T22:09:08.962Z,7.67
2019-03-27T22:11:57.640Z,7.69
2019-03-27T22:14:42.448Z,7.67
2019-03-27T22:17:19.790Z,7.70
2019-03-27T22:19:53.516Z,7.66
2019-03-27T22:22:27.943Z,7.66
2019-03-27T22:25:01.085Z,7.72
2019-03-27T22:27:34.426Z,7.75
2019-03-27T22:30:09.496Z,7.75
2019-03-27T22:32:43.532Z,7.75
2019-03-27T22:35:16.392Z,7.71
2019-03-27T22:37:51.092Z,7.76
2019-03-27T22:40:24.682Z,7.76
2019-03-27T22:42:58.084Z,7.75
2019-03-27T22:45:35.264Z,7.75
2019-03-27T22:48:08.135Z,7.75
2019-03-27T22:50:40.661Z,7.76
2019-03-27T22:53:13.234Z,7.75
2019-03-27T22:55:50.142Z,7.76
2019-03-27T22:58:19.926Z,7.75
2019-03-27T23:00:55.063Z,7.76
2019-03-27T23:03:27.646Z,7.76
2019-03-27T23:06:00.213Z,7.78
2019-03-27T23:08:32.790Z,7.78
2019-03-27T23:11:06.391Z,7.78
2019-03-27T23:13:38.965Z,7.80
2019-03-27T23:16:11.541Z,7.77
2019-03-27T23:18:43.668Z,7.78
2019-03-27T23:21:16.190Z,7.80
2019-03-27T23:23:48.765Z,7.79
2019-03-27T23:26:21.343Z,7.80
2019-03-27T23:28:53.818Z,7.78
2019-03-27T23:31:26.434Z,7.76
2019-03-27T23:34:00.474Z,7.77
2019-03-27T23:36:32.670Z,7.77
2019-03-27T23:39:07.807Z,7.76
2019-03-27T23:41:40.381Z,7.75
2019-03-27T23:44:12.502Z,7.79
2019-03-27T23:46:44.789Z,7.79
2019-03-27T23:49:17.295Z,7.81
2019-03-27T23:51:49.871Z,7.80
2019-03-27T23:54:22.550Z,7.80
2019-03-27T23:56:55.126Z,7.80
2019-03-27T23:59:27.703Z,7.82
